createdAt,value
2019-05-01T00:01:42.816Z,31.40
2019-05-01T00:04:32.007Z,35.07
2019-05-01T00:07:04.606Z,33.93
2019-05-01T00:09:34.947Z,35.87
2019-05-01T00:12:05.367Z,34.50
2019-05-01T00:14:37.328Z,34.30
2019-05-01T00:17:07.813Z,30.97
2019-05-01T00:19:38.211Z,32.00
2019-05-01T00:22:08.626Z,32.17
2019-05-01T00:24:39.047Z,33.23
2019-05-01T00:27:09.468Z,33.83
2019-05-01T00:29:39.875Z,33.73
2019-05-01T00:32:10.188Z,34.50
2019-05-01T00:34:41.879Z,32.13
2019-05-01T00:37:12.226Z,32.90
2019-05-01T00:39:42.580Z,33.97
2019-05-01T00:42:12.902Z,33.87
2019-05-01T00:44:43.250Z,33.63
2019-05-01T00:47:13.572Z,32.97
2019-05-01T00:49:43.920Z,31.90
2019-05-01T00:52:14.243Z,32.43
2019-05-01T00:54:47.471Z,32.80
2019-05-01T00:57:27.309Z,33.23
2019-05-01T01:00:16.618Z,33.93
2019-05-01T01:02:50.207Z,33.30
2019-05-01T01:05:20.542Z,36.27
2019-05-01T01:07:50.857Z,34.80
2019-05-01T01:10:21.202Z,36.30
2019-05-01T01:12:51.507Z,35.03
2019-05-01T01:15:21.854Z,34.03
2019-05-01T01:17:52.167Z,35.33
2019-05-01T01:20:22.494Z,34.03
2019-05-01T01:22:52.841Z,36.07
2019-05-01T01:25:23.263Z,35.90
2019-05-01T01:27:53.566Z,35.73
2019-05-01T01:30:23.915Z,36.97
2019-05-01T01:32:54.232Z,36.70
2019-05-01T01:35:24.573Z,39.00
2019-05-01T01:37:54.880Z,35.20
2019-05-01T01:40:25.289Z,35.33
2019-05-01T01:42:58.266Z,35.70
2019-05-01T01:45:36.807Z,38.30
2019-05-01T01:48:15.286Z,40.00
2019-05-01T01:50:46.616Z,40.63
2019-05-01T01:53:20.221Z,40.97
2019-05-01T01:55:50.860Z,39.27
2019-05-01T01:58:22.527Z,36.30
2019-05-01T02:01:14.825Z,33.90
2019-05-01T02:03:48.977Z,32.53
2019-05-01T02:06:19.597Z,33.70
2019-05-01T02:08:56.188Z,31.07
2019-05-01T02:11:21.878Z,30.77
2019-05-01T02:13:56.247Z,32.13
2019-05-01T02:16:26.694Z,30.33
2019-05-01T02:18:56.986Z,30.73
2019-05-01T02:21:27.324Z,29.57
2019-05-01T02:23:59.246Z,28.87
2019-05-01T02:26:32.987Z,30.97
2019-05-01T02:29:10.578Z,30.50
2019-05-01T02:31:44.886Z,33.33
2019-05-01T02:34:18.107Z,34.80
2019-05-01T02:36:50.550Z,35.47
2019-05-01T02:39:22.036Z,29.53
2019-05-01T02:41:55.372Z,31.30
2019-05-01T02:44:29.191Z,32.60
2019-05-01T02:47:02.111Z,31.30
2019-05-01T02:49:47.213Z,29.13
2019-05-01T02:52:20.620Z,32.67
2019-05-01T02:54:53.633Z,28.90
2019-05-01T02:57:26.067Z,35.27
2019-05-01T02:59:57.266Z,34.10
2019-05-01T03:02:29.103Z,34.17
2019-05-01T03:05:00.512Z,34.97
2019-05-01T03:07:33.811Z,32.50
2019-05-01T03:10:09.197Z,33.93
2019-05-01T03:12:40.508Z,30.43
2019-05-01T03:15:12.733Z,27.50
2019-05-01T03:18:00.139Z,29.33
2019-05-01T03:20:37.423Z,28.67
2019-05-01T03:23:21.419Z,27.83
2019-05-01T03:25:52.140Z,27.93
2019-05-01T03:28:22.985Z,29.27
2019-05-01T03:30:53.607Z,32.50
2019-05-01T03:33:23.961Z,32.33
2019-05-01T03:35:54.702Z,30.57
2019-05-01T03:38:25.828Z,32.23
2019-05-01T03:40:57.035Z,31.00
2019-05-01T03:43:27.863Z,31.73
2019-05-01T03:45:58.169Z,29.93
2019-05-01T03:48:28.876Z,30.37
2019-05-01T03:50:59.204Z,32.80
2019-05-01T03:53:29.940Z,30.97
2019-05-01T03:56:00.662Z,34.60
2019-05-01T03:58:31.606Z,31.17
2019-05-01T04:01:27.036Z,31.10
2019-05-01T04:04:10.660Z,29.23
2019-05-01T04:06:41.004Z,29.67
2019-05-01T04:09:11.310Z,27.33
2019-05-01T04:11:41.752Z,27.30
2019-05-01T04:14:12.071Z,27.80
2019-05-01T04:16:44.738Z,27.10
2019-05-01T04:19:16.155Z,26.73
2019-05-01T04:22:01.643Z,28.20
2019-05-01T04:24:32.353Z,31.93
2019-05-01T04:27:04.627Z,33.67
2019-05-01T04:29:54.040Z,29.30
2019-05-01T04:32:27.678Z,26.03
2019-05-01T04:35:17.364Z,25.80
2019-05-01T04:37:48.108Z,25.27
2019-05-01T04:40:19.239Z,24.70
2019-05-01T04:42:50.026Z,24.23
2019-05-01T04:45:21.906Z,20.90
2019-05-01T04:47:53.065Z,18.90
2019-05-01T04:50:23.576Z,18.53
2019-05-01T04:52:54.020Z,19.87
2019-05-01T04:55:24.730Z,20.40
2019-05-01T04:57:55.161Z,21.90
2019-05-01T05:00:25.510Z,24.77
2019-05-01T05:03:04.960Z,24.20
2019-05-01T05:05:33.684Z,24.70
2019-05-01T05:08:04.533Z,26.53
2019-05-01T05:10:35.174Z,25.40
2019-05-01T05:13:23.617Z,26.10
2019-05-01T05:16:02.435Z,27.13
2019-05-01T05:18:32.793Z,27.17
2019-05-01T05:21:03.119Z,27.07
2019-05-01T05:23:33.571Z,27.33
2019-05-01T05:26:04.684Z,28.10
2019-05-01T05:28:36.219Z,29.17
2019-05-01T05:31:07.696Z,29.13
2019-05-01T05:33:39.912Z,30.37
2019-05-01T05:36:12.133Z,30.47
2019-05-01T05:39:07.888Z,31.50
2019-05-01T05:41:39.021Z,31.53
2019-05-01T05:44:09.458Z,30.00
2019-05-01T05:46:41.086Z,33.83
2019-05-01T05:49:11.417Z,31.23
2019-05-01T05:51:58.588Z,31.37
2019-05-01T05:54:58.830Z,30.83
2019-05-01T05:57:57.164Z,30.90
2019-05-01T06:00:54.196Z,28.33
2019-05-01T06:04:03.934Z,27.73
2019-05-01T06:06:44.531Z,25.93
2019-05-01T06:09:18.046Z,24.90
2019-05-01T06:11:58.943Z,23.90
2019-05-01T06:15:07.648Z,22.33
2019-05-01T06:17:59.049Z,22.47
2019-05-01T06:20:57.143Z,22.40
2019-05-01T06:23:57.476Z,21.03
2019-05-01T06:26:32.157Z,19.40
2019-05-01T06:29:02.098Z,18.90
2019-05-01T06:31:33.419Z,19.33
2019-05-01T06:34:04.125Z,19.97
2019-05-01T06:36:34.745Z,19.23
2019-05-01T06:39:11.886Z,19.33
2019-05-01T06:41:43.979Z,19.13
2019-05-01T06:44:28.392Z,19.87
2019-05-01T06:47:22.800Z,19.37
2019-05-01T06:50:15.588Z,18.87
2019-05-01T06:52:46.007Z,17.77
2019-05-01T06:55:16.354Z,17.93
2019-05-01T06:57:46.875Z,17.80
2019-05-01T07:00:18.332Z,17.47
2019-05-01T07:02:50.890Z,17.03
2019-05-01T07:05:23.362Z,17.13
2019-05-01T07:07:55.987Z,16.53
2019-05-01T07:10:31.781Z,16.30
2019-05-01T07:13:04.917Z,16.73
2019-05-01T07:15:33.834Z,16.50
2019-05-01T07:18:05.028Z,15.93
2019-05-01T07:20:54.626Z,16.07
2019-05-01T07:23:25.143Z,15.37
2019-05-01T07:25:55.562Z,15.03
2019-05-01T07:28:29.045Z,15.03
2019-05-01T07:31:09.024Z,15.20
2019-05-01T07:33:39.746Z,14.80
2019-05-01T07:36:15.280Z,15.13
2019-05-01T07:38:44.980Z,15.00
2019-05-01T07:41:16.993Z,15.13
2019-05-01T07:43:59.610Z,15.50
2019-05-01T07:46:48.960Z,15.40
2019-05-01T07:49:20.966Z,16.27
2019-05-01T07:51:52.647Z,16.13
2019-05-01T07:54:23.818Z,15.70
2019-05-01T07:56:54.186Z,16.17
2019-05-01T07:59:27.443Z,15.90
2019-05-01T08:02:03.509Z,16.87
2019-05-01T08:04:36.401Z,17.07
2019-05-01T08:07:05.888Z,16.57
2019-05-01T08:09:36.245Z,18.27
2019-05-01T08:12:06.599Z,17.40
2019-05-01T08:14:36.924Z,17.07
2019-05-01T08:17:12.890Z,17.77
2019-05-01T08:20:09.951Z,17.80
2019-05-01T08:22:41.235Z,17.77
2019-05-01T08:25:11.562Z,18.87
2019-05-01T08:27:56.252Z,19.07
2019-05-01T08:30:56.441Z,18.50
2019-05-01T08:33:49.836Z,18.83
2019-05-01T08:36:17.834Z,19.30
2019-05-01T08:38:48.203Z,19.03
2019-05-01T08:41:18.650Z,19.13
2019-05-01T08:43:54.109Z,19.63
2019-05-01T08:46:46.761Z,18.87
2019-05-01T08:49:33.969Z,18.30
2019-05-01T08:52:04.713Z,19.40
2019-05-01T08:54:36.531Z,19.57
2019-05-01T08:57:11.671Z,19.00
2019-05-01T08:59:42.072Z,18.73
2019-05-01T09:02:12.438Z,19.10
2019-05-01T09:04:42.743Z,19.30
2019-05-01T09:07:14.603Z,18.77
2019-05-01T09:09:47.001Z,18.77
2019-05-01T09:12:17.127Z,18.70
2019-05-01T09:14:47.483Z,19.83
2019-05-01T09:17:17.843Z,19.97
2019-05-01T09:19:48.175Z,19.23
2019-05-01T09:22:18.573Z,20.03
2019-05-01T09:24:49.396Z,20.60
2019-05-01T09:27:29.410Z,20.00
2019-05-01T09:30:04.411Z,19.87
2019-05-01T09:32:34.475Z,20.00
2019-05-01T09:35:15.353Z,19.27
2019-05-01T09:37:37.412Z,19.23
2019-05-01T09:40:09.093Z,20.30
2019-05-01T09:42:41.070Z,19.73
2019-05-01T09:45:11.587Z,19.53
2019-05-01T09:47:43.050Z,20.17
2019-05-01T09:50:13.991Z,19.90
2019-05-01T09:52:55.169Z,19.47
2019-05-01T09:55:35.980Z,19.53
2019-05-01T09:58:06.436Z,19.33
2019-05-01T10:00:36.760Z,19.83
2019-05-01T10:03:07.694Z,20.00
2019-05-01T10:05:42.625Z,19.87
2019-05-01T10:08:10.189Z,19.30
2019-05-01T10:10:41.017Z,19.25
2019-05-01T10:13:11.379Z,19.77
2019-05-01T10:15:41.720Z,19.90
2019-05-01T10:18:12.816Z,19.53
2019-05-01T10:20:45.246Z,18.93
2019-05-01T10:23:16.701Z,18.50
2019-05-01T10:25:52.134Z,19.90
2019-05-01T10:28:35.963Z,19.97
2019-05-01T10:31:14.279Z,19.40
2019-05-01T10:33:46.522Z,17.53
2019-05-01T10:36:32.582Z,17.73
2019-05-01T10:39:03.660Z,16.73
2019-05-01T10:41:35.054Z,15.87
2019-05-01T10:44:05.733Z,14.53
2019-05-01T10:46:36.061Z,16.80
2019-05-01T10:49:06.435Z,15.50
2019-05-01T10:51:36.783Z,14.03
2019-05-01T10:54:07.155Z,14.33
2019-05-01T10:56:37.499Z,14.80
2019-05-01T10:59:07.856Z,12.67
2019-05-01T11:01:51.061Z,12.43
2019-05-01T11:04:21.524Z,12.87
2019-05-01T11:06:51.851Z,12.00
2019-05-01T11:09:22.211Z,10.60
2019-05-01T11:11:52.532Z,13.70
2019-05-01T11:14:22.931Z,13.70
2019-05-01T11:16:53.255Z,11.90
2019-05-01T11:19:23.618Z,11.53
2019-05-01T11:21:53.943Z,10.67
2019-05-01T11:24:24.389Z,9.57
2019-05-01T11:26:54.699Z,9.10
2019-05-01T11:29:25.073Z,8.73
2019-05-01T11:32:17.329Z,7.23
2019-05-01T11:35:05.571Z,8.00
2019-05-01T11:37:54.835Z,8.63
2019-05-01T11:40:35.046Z,10.45
2019-05-01T11:43:05.431Z,9.90
2019-05-01T11:45:35.777Z,8.85
2019-05-01T11:48:06.079Z,8.25
2019-05-01T11:50:36.662Z,9.15
2019-05-01T11:53:06.980Z,9.58
2019-05-01T11:55:37.349Z,9.13
2019-05-01T11:58:07.658Z,9.70
2019-05-01T12:00:38.018Z,8.15
2019-05-01T12:03:09.029Z,8.90
2019-05-01T12:05:39.375Z,7.03
2019-05-01T12:08:09.719Z,8.60
2019-05-01T12:10:41.061Z,8.38
2019-05-01T12:13:11.400Z,8.28
2019-05-01T12:15:43.395Z,8.10
2019-05-01T12:18:14.695Z,7.80
2019-05-01T12:20:46.123Z,8.70
2019-05-01T12:23:16.467Z,8.80
2019-05-01T12:25:46.823Z,8.50
2019-05-01T12:28:17.302Z,8.43
2019-05-01T12:30:47.995Z,8.18
2019-05-01T12:33:18.374Z,8.38
2019-05-01T12:35:50.567Z,7.50
2019-05-01T12:38:21.744Z,7.60
2019-05-01T12:41:10.142Z,9.10
2019-05-01T12:43:40.944Z,8.42
2019-05-01T12:46:12.887Z,9.48
2019-05-01T12:48:43.207Z,8.73
2019-05-01T12:51:13.580Z,9.23
2019-05-01T12:54:06.444Z,8.80
2019-05-01T12:56:48.830Z,7.87
2019-05-01T12:59:19.164Z,8.40
2019-05-01T13:01:49.520Z,8.47
2019-05-01T13:04:19.987Z,7.83
2019-05-01T13:06:53.095Z,8.15
2019-05-01T13:09:23.442Z,8.15
2019-05-01T13:11:53.795Z,8.03
2019-05-01T13:14:24.131Z,7.28
2019-05-01T13:16:54.522Z,7.70
2019-05-01T13:19:24.837Z,7.80
2019-05-01T13:21:55.222Z,8.30
2019-05-01T13:24:25.542Z,8.20
2019-05-01T13:27:12.351Z,7.10
2019-05-01T13:30:00.703Z,7.33
2019-05-01T13:32:49.996Z,8.20
2019-05-01T13:35:20.396Z,8.08
2019-05-01T13:37:50.754Z,7.23
2019-05-01T13:40:21.077Z,7.50
2019-05-01T13:42:51.454Z,7.25
2019-05-01T13:45:22.490Z,7.97
2019-05-01T13:47:54.417Z,7.92
2019-05-01T13:50:24.980Z,8.20
2019-05-01T13:52:55.326Z,7.60
2019-05-01T13:55:25.681Z,6.75
2019-05-01T13:57:56.021Z,7.25
2019-05-01T14:00:27.067Z,7.83
2019-05-01T14:02:57.435Z,7.37
2019-05-01T14:05:27.753Z,7.20
2019-05-01T14:07:58.168Z,7.57
2019-05-01T14:10:28.661Z,7.90
2019-05-01T14:12:59.094Z,8.45
2019-05-01T14:15:29.476Z,7.80
2019-05-01T14:17:59.852Z,7.85
2019-05-01T14:20:51.843Z,6.92
2019-05-01T14:23:39.274Z,8.10
2019-05-01T14:26:09.627Z,8.80
2019-05-01T14:28:40.910Z,6.92
2019-05-01T14:31:11.273Z,7.35
2019-05-01T14:33:41.748Z,7.92
2019-05-01T14:36:12.179Z,6.95
2019-05-01T14:38:42.556Z,7.58
2019-05-01T14:41:12.924Z,8.68
2019-05-01T14:43:43.343Z,8.60
2019-05-01T14:46:13.663Z,7.92
2019-05-01T14:48:44.013Z,7.83
2019-05-01T14:51:16.145Z,8.00
2019-05-01T14:53:47.011Z,8.60
2019-05-01T14:56:17.356Z,9.20
2019-05-01T14:58:48.631Z,8.77
2019-05-01T15:01:19.006Z,7.92
2019-05-01T15:03:49.360Z,8.50
2019-05-01T15:06:19.711Z,8.70
2019-05-01T15:08:50.063Z,8.03
2019-05-01T15:11:20.357Z,8.23
2019-05-01T15:13:59.850Z,9.00
2019-05-01T15:16:40.227Z,6.83
2019-05-01T15:19:15.565Z,7.70
2019-05-01T15:21:46.248Z,9.13
2019-05-01T15:24:16.610Z,7.90
2019-05-01T15:26:47.177Z,8.20
2019-05-01T15:29:17.854Z,8.90
2019-05-01T15:31:48.521Z,7.83
2019-05-01T15:34:18.880Z,6.90
2019-05-01T15:36:49.196Z,8.48
2019-05-01T15:39:30.950Z,9.53
2019-05-01T15:42:23.230Z,6.80
2019-05-01T15:44:53.659Z,8.08
2019-05-01T15:47:24.027Z,8.88
2019-05-01T15:49:54.681Z,7.37
2019-05-01T15:52:25.033Z,8.68
2019-05-01T15:54:55.472Z,9.10
2019-05-01T15:57:25.809Z,9.03
2019-05-01T15:59:56.166Z,8.13
2019-05-01T16:02:26.501Z,8.60
2019-05-01T16:04:57.990Z,9.13
2019-05-01T16:07:28.423Z,7.70
2019-05-01T16:09:58.768Z,8.18
2019-05-01T16:12:40.109Z,7.25
2019-05-01T16:15:17.231Z,7.22
2019-05-01T16:17:47.565Z,7.78
2019-05-01T16:20:17.914Z,7.80
2019-05-01T16:22:48.231Z,8.30
2019-05-01T16:25:18.618Z,10.20
2019-05-01T16:27:48.964Z,9.05
2019-05-01T16:30:23.398Z,7.55
2019-05-01T16:32:53.771Z,8.15
2019-05-01T16:35:24.084Z,8.60
2019-05-01T16:37:56.399Z,9.20
2019-05-01T16:40:46.656Z,8.15
2019-05-01T16:43:16.971Z,8.13
2019-05-01T16:45:47.323Z,8.83
2019-05-01T16:48:17.650Z,7.33
2019-05-01T16:50:47.998Z,7.70
2019-05-01T16:53:18.599Z,7.87
2019-05-01T16:55:48.956Z,7.75
2019-05-01T16:58:19.477Z,7.15
2019-05-01T17:01:13.989Z,7.70
2019-05-01T17:04:01.823Z,9.00
2019-05-01T17:06:39.956Z,7.47
2019-05-01T17:09:29.146Z,7.95
2019-05-01T17:11:59.466Z,7.05
2019-05-01T17:14:30.625Z,7.37
2019-05-01T17:17:01.043Z,7.37
2019-05-01T17:19:32.076Z,6.47
2019-05-01T17:22:02.390Z,6.72
2019-05-01T17:24:32.824Z,7.87
2019-05-01T17:27:03.151Z,7.80
2019-05-01T17:29:34.603Z,7.50
2019-05-01T17:32:05.329Z,8.10
2019-05-01T17:34:35.800Z,8.23
2019-05-01T17:37:06.120Z,7.75
2019-05-01T17:39:37.422Z,8.13
2019-05-01T17:42:09.385Z,11.20
2019-05-01T17:44:39.740Z,11.00
2019-05-01T17:47:10.093Z,8.43
2019-05-01T17:49:44.851Z,9.10
2019-05-01T17:52:13.844Z,8.87
2019-05-01T17:54:44.196Z,8.03
2019-05-01T17:57:14.546Z,8.03
2019-05-01T17:59:47.465Z,9.13
2019-05-01T18:02:42.528Z,9.53
2019-05-01T18:05:30.651Z,9.00
2019-05-01T18:08:01.459Z,10.20
2019-05-01T18:10:34.103Z,8.83
2019-05-01T18:13:03.988Z,9.77
2019-05-01T18:15:34.364Z,9.43
2019-05-01T18:18:04.708Z,9.83
2019-05-01T18:20:36.432Z,9.77
2019-05-01T18:23:17.274Z,12.17
2019-05-01T18:26:04.833Z,12.13
2019-05-01T18:28:39.330Z,11.10
2019-05-01T18:31:14.753Z,10.50
2019-05-01T18:33:45.139Z,10.30
2019-05-01T18:36:19.857Z,10.80
2019-05-01T18:38:56.548Z,13.40
2019-05-01T18:41:41.348Z,12.50
2019-05-01T18:44:14.102Z,14.00
2019-05-01T18:46:44.609Z,14.10
2019-05-01T18:49:15.455Z,14.03
2019-05-01T18:51:45.907Z,15.40
2019-05-01T18:54:16.690Z,12.77
2019-05-01T18:56:47.070Z,13.77
2019-05-01T18:59:17.662Z,14.20
2019-05-01T19:01:49.716Z,14.33
2019-05-01T19:04:23.513Z,13.77
2019-05-01T19:06:52.841Z,13.40
2019-05-01T19:09:30.064Z,12.43
2019-05-01T19:11:55.971Z,12.33
2019-05-01T19:14:28.788Z,12.60
2019-05-01T19:16:58.913Z,12.57
2019-05-01T19:19:30.920Z,11.87
2019-05-01T19:22:02.444Z,11.70
2019-05-01T19:24:38.116Z,12.27
2019-05-01T19:27:07.231Z,12.23
2019-05-01T19:29:38.940Z,12.00
2019-05-01T19:32:09.553Z,11.83
2019-05-01T19:34:41.949Z,12.40
2019-05-01T19:37:16.518Z,12.53
2019-05-01T19:39:49.110Z,12.20
2019-05-01T19:42:21.617Z,12.10
2019-05-01T19:44:51.070Z,12.50
2019-05-01T19:47:22.107Z,12.10
2019-05-01T19:49:54.555Z,12.47
2019-05-01T19:52:24.459Z,12.17
2019-05-01T19:54:54.956Z,10.90
2019-05-01T19:57:25.476Z,9.50
2019-05-01T19:59:55.994Z,9.60
2019-05-01T20:02:26.524Z,10.07
2019-05-01T20:04:57.138Z,10.47
2019-05-01T20:07:28.713Z,9.50
2019-05-01T20:09:59.138Z,10.10
2019-05-01T20:12:29.929Z,10.27
2019-05-01T20:15:00.547Z,10.00
2019-05-01T20:17:31.112Z,10.67
2019-05-01T20:20:01.945Z,9.13
2019-05-01T20:22:32.668Z,11.53
2019-05-01T20:25:03.194Z,11.57
2019-05-01T20:27:34.009Z,11.43
2019-05-01T20:30:06.071Z,11.73
2019-05-01T20:32:36.869Z,13.80
2019-05-01T20:35:07.462Z,13.30
2019-05-01T20:37:38.107Z,14.13
2019-05-01T20:40:11.376Z,12.63
2019-05-01T20:42:41.448Z,13.40
2019-05-01T20:45:17.665Z,13.83
2019-05-01T20:47:46.262Z,14.63
2019-05-01T20:50:17.382Z,15.13
2019-05-01T20:52:49.562Z,15.10
2019-05-01T20:55:20.390Z,14.83
2019-05-01T20:57:51.319Z,14.20
2019-05-01T21:00:23.450Z,13.40
2019-05-01T21:02:53.830Z,13.60
2019-05-01T21:05:29.861Z,13.30
2019-05-01T21:08:13.116Z,13.27
2019-05-01T21:10:51.207Z,14.03
2019-05-01T21:13:23.119Z,13.07
2019-05-01T21:15:56.427Z,12.17
2019-05-01T21:18:27.623Z,12.47
2019-05-01T21:20:57.758Z,12.33
2019-05-01T21:23:28.087Z,12.50
2019-05-01T21:25:58.448Z,12.50
2019-05-01T21:28:28.844Z,11.73
2019-05-01T21:30:59.255Z,12.80
2019-05-01T21:33:29.623Z,12.93
2019-05-01T21:36:04.902Z,12.17
2019-05-01T21:38:32.269Z,12.30
2019-05-01T21:41:02.983Z,12.43
2019-05-01T21:43:37.061Z,11.93
2019-05-01T21:46:06.752Z,12.77
2019-05-01T21:48:37.045Z,12.53
2019-05-01T21:51:07.767Z,12.77
2019-05-01T21:53:42.724Z,12.47
2019-05-01T21:56:10.602Z,13.00
2019-05-01T21:58:41.081Z,14.00
2019-05-01T22:01:11.535Z,14.03
2019-05-01T22:03:42.129Z,13.97
2019-05-01T22:06:15.288Z,14.77
2019-05-01T22:08:44.430Z,13.37
2019-05-01T22:11:14.789Z,13.27
2019-05-01T22:13:45.103Z,13.97
2019-05-01T22:16:22.405Z,14.07
2019-05-01T22:19:16.388Z,15.40
2019-05-01T22:22:21.083Z,15.43
2019-05-01T22:25:02.145Z,15.27
2019-05-01T22:27:39.257Z,14.57
2019-05-01T22:30:24.091Z,15.90
2019-05-01T22:32:54.846Z,14.00
2019-05-01T22:35:27.028Z,14.80
2019-05-01T22:37:57.628Z,15.07
2019-05-01T22:41:06.758Z,15.50
2019-05-01T22:43:36.936Z,15.00
2019-05-01T22:46:11.888Z,14.60
2019-05-01T22:48:42.429Z,15.80
2019-05-01T22:51:24.496Z,15.57
2019-05-01T22:53:56.289Z,15.37
2019-05-01T22:56:28.036Z,15.43
2019-05-01T22:59:00.142Z,16.07
2019-05-01T23:01:32.581Z,16.90
2019-05-01T23:04:06.652Z,15.93
2019-05-01T23:06:41.861Z,16.10
2019-05-01T23:09:15.728Z,15.90
2019-05-01T23:11:48.456Z,16.80
2019-05-01T23:14:22.068Z,17.27
2019-05-01T23:17:05.192Z,18.63
2019-05-01T23:19:35.696Z,16.90
2019-05-01T23:22:09.734Z,17.63
2019-05-01T23:24:40.918Z,17.00
2019-05-01T23:27:11.493Z,16.70
2019-05-01T23:29:41.951Z,18.07
2019-05-01T23:32:12.372Z,16.97
2019-05-01T23:34:43.117Z,18.47
2019-05-01T23:37:13.464Z,18.20
2019-05-01T23:39:43.924Z,17.57
2019-05-01T23:42:14.777Z,18.67
2019-05-01T23:44:45.251Z,18.80
2019-05-01T23:47:16.465Z,18.83
2019-05-01T23:49:47.691Z,18.27
2019-05-01T23:52:19.364Z,18.47
2019-05-01T23:54:49.795Z,17.83
2019-05-01T23:57:20.380Z,18.63
2019-05-01T23:59:50.939Z,17.77
